Missouri River (Missouri), Hermann (06934500)

StateMissouriLatestUnknown (74300 cfs)
RiverMissouri RiverRatingObservedEstimated
Updated2020-07-13 15:30 (38 minutes ago)Flood - The river is flooding. Obstacles can be treacherous or deadly. The river should be avoided at this stage for casual trips and definitely for the inexperienced. Trips should be attempted only with protective gear and equipment.Flood(none)(none)
Discharge74300 cfs (median: 91300 cfs)High - The river is high and potentially dangerous, especially for the young and / or inexperienced. Normal stream obstacles are sometimes difficult to navigate. Extended distances can be attempted, but canoe travel may not be advisable.High(none)(none)
Height10.53 feetGood - Conditions are ideal for a canoe or kayak. Boats typically will drag on fewer than one-quarter of riffles, if at all, and portages are unnecessary or rare. Normal float lengths can be attempted without a problem.Good(none)(none)
TrendRising (falling over 24 hours)Low - River is low but can still be floated. Some riffles are okay but most come with significant dragging and might need a portage. Float lengths should be reduced to accommodate low flow, dragging, and portages.Low(none)(none)
USGSExternal icon USGS Site (External icon Google Maps)Poor - River is too low to float comfortably. Most or all riffles will drag or must be portaged and some obstacles (such as slick shelf rock) cause undue problems. Avoid the river at this stage for casual paddling trips.Poor(none)(none)

Trending Data

Plot Image

Trips for Missouri River (Missouri), Hermann (06934500)

DateStartEndDistanceConditionDischargeHeightFishingDetails

A total of 0 rows are displayed.

Condition Descriptions

Fishing Conditions

Fish Species

Notes

Classic Trip List

The classic River Trips application is still available for use. It is updated with the new system using a data retrofit. It is no longer maintained. The original River Trips application is no longer updated (as of 1 Dec 2016) but can be checked for errors or for the condition of the data before it was converted to the new system.

Gauge Data Table

ObservationHeightDischargeMaximum
Discharge
Minimum
Discharge
Mean
Discharge
P05P10P20P25P50
(Median)
P75P80P90P95
2020-07-13 15:30 10.53 74300 332000 (1993) 38600 (2006) 105000 43900 47200 56300 57300 91300 120000 146000 207000 244000
2020-07-13 14:30 10.52 74200 332000 (1993) 38600 (2006) 105000 43900 47200 56300 57300 91300 120000 146000 207000 244000
2020-07-13 13:30 10.52 74200 332000 (1993) 38600 (2006) 105000 43900 47200 56300 57300 91300 120000 146000 207000 244000
2020-07-13 12:30 10.57 74600 332000 (1993) 38600 (2006) 105000 43900 47200 56300 57300 91300 120000 146000 207000 244000
2020-07-13 11:30 10.62 75000 332000 (1993) 38600 (2006) 105000 43900 47200 56300 57300 91300 120000 146000 207000 244000
2020-07-13 10:30 10.64 75100 332000 (1993) 38600 (2006) 105000 43900 47200 56300 57300 91300 120000 146000 207000 244000
2020-07-13 09:30 10.66 75300 332000 (1993) 38600 (2006) 105000 43900 47200 56300 57300 91300 120000 146000 207000 244000
2020-07-13 08:30 10.63 75100 332000 (1993) 38600 (2006) 105000 43900 47200 56300 57300 91300 120000 146000 207000 244000
2020-07-13 07:30 10.65 75200 332000 (1993) 38600 (2006) 105000 43900 47200 56300 57300 91300 120000 146000 207000 244000
2020-07-13 06:30 10.70 75600 332000 (1993) 38600 (2006) 105000 43900 47200 56300 57300 91300 120000 146000 207000 244000
2020-07-13 05:30 10.74 75900 332000 (1993) 38600 (2006) 105000 43900 47200 56300 57300 91300 120000 146000 207000 244000
2020-07-13 04:30 10.73 75900 332000 (1993) 38600 (2006) 105000 43900 47200 56300 57300 91300 120000 146000 207000 244000
2020-07-13 03:30 10.76 76100 332000 (1993) 38600 (2006) 105000 43900 47200 56300 57300 91300 120000 146000 207000 244000
2020-07-13 02:30 10.77 76200 332000 (1993) 38600 (2006) 105000 43900 47200 56300 57300 91300 120000 146000 207000 244000
2020-07-13 01:30 10.79 76300 332000 (1993) 38600 (2006) 105000 43900 47200 56300 57300 91300 120000 146000 207000 244000
2020-07-13 00:30 10.80 76400 332000 (1993) 38600 (2006) 105000 43900 47200 56300 57300 91300 120000 146000 207000 244000
2020-07-12 23:30 10.81 76500 331000 (1993) 37000 (2006) 105000 45600 47100 56200 59200 85100 117000 143000 215000 248000
2020-07-12 22:30 10.83 76700 331000 (1993) 37000 (2006) 105000 45600 47100 56200 59200 85100 117000 143000 215000 248000
2020-07-12 21:30 10.84 76700 331000 (1993) 37000 (2006) 105000 45600 47100 56200 59200 85100 117000 143000 215000 248000
2020-07-12 20:30 10.86 76900 331000 (1993) 37000 (2006) 105000 45600 47100 56200 59200 85100 117000 143000 215000 248000
2020-07-12 19:30 10.88 77100 331000 (1993) 37000 (2006) 105000 45600 47100 56200 59200 85100 117000 143000 215000 248000
2020-07-12 18:30 10.86 76900 331000 (1993) 37000 (2006) 105000 45600 47100 56200 59200 85100 117000 143000 215000 248000
2020-07-12 17:30 10.87 77000 331000 (1993) 37000 (2006) 105000 45600 47100 56200 59200 85100 117000 143000 215000 248000
2020-07-12 16:30 10.91 77300 331000 (1993) 37000 (2006) 105000 45600 47100 56200 59200 85100 117000 143000 215000 248000
2020-07-12 15:30 10.89 77100 331000 (1993) 37000 (2006) 105000 45600 47100 56200 59200 85100 117000 143000 215000 248000
2020-07-12 14:30 10.94 77500 331000 (1993) 37000 (2006) 105000 45600 47100 56200 59200 85100 117000 143000 215000 248000
2020-07-12 13:30 10.94 77500 331000 (1993) 37000 (2006) 105000 45600 47100 56200 59200 85100 117000 143000 215000 248000
2020-07-12 12:30 11.00 78000 331000 (1993) 37000 (2006) 105000 45600 47100 56200 59200 85100 117000 143000 215000 248000
2020-07-12 11:30 11.01 78100 331000 (1993) 37000 (2006) 105000 45600 47100 56200 59200 85100 117000 143000 215000 248000
2020-07-12 10:30 11.03 78300 331000 (1993) 37000 (2006) 105000 45600 47100 56200 59200 85100 117000 143000 215000 248000
2020-07-12 09:30 11.00 78000 331000 (1993) 37000 (2006) 105000 45600 47100 56200 59200 85100 117000 143000 215000 248000
2020-07-12 08:30 11.07 78600 331000 (1993) 37000 (2006) 105000 45600 47100 56200 59200 85100 117000 143000 215000 248000
2020-07-12 07:30 11.10 78900 331000 (1993) 37000 (2006) 105000 45600 47100 56200 59200 85100 117000 143000 215000 248000
2020-07-12 06:30 11.13 79100 331000 (1993) 37000 (2006) 105000 45600 47100 56200 59200 85100 117000 143000 215000 248000
2020-07-12 05:30 11.14 79200 331000 (1993) 37000 (2006) 105000 45600 47100 56200 59200 85100 117000 143000 215000 248000
2020-07-12 04:30 11.17 79400 331000 (1993) 37000 (2006) 105000 45600 47100 56200 59200 85100 117000 143000 215000 248000
2020-07-12 03:30 11.22 79800 331000 (1993) 37000 (2006) 105000 45600 47100 56200 59200 85100 117000 143000 215000 248000
2020-07-12 02:30 11.22 79800 331000 (1993) 37000 (2006) 105000 45600 47100 56200 59200 85100 117000 143000 215000 248000
2020-07-12 01:30 11.27 80300 331000 (1993) 37000 (2006) 105000 45600 47100 56200 59200 85100 117000 143000 215000 248000
2020-07-12 00:30 11.30 80500 331000 (1993) 37000 (2006) 105000 45600 47100 56200 59200 85100 117000 143000 215000 248000
2020-07-11 23:30 11.33 80800 343000 (1993) 37500 (2006) 108000 44700 49200 57000 59900 86600 130000 150000 231000 262000
2020-07-11 22:30 11.37 81100 343000 (1993) 37500 (2006) 108000 44700 49200 57000 59900 86600 130000 150000 231000 262000
2020-07-11 21:30 11.39 81300 343000 (1993) 37500 (2006) 108000 44700 49200 57000 59900 86600 130000 150000 231000 262000
2020-07-11 20:30 11.43 81600 343000 (1993) 37500 (2006) 108000 44700 49200 57000 59900 86600 130000 150000 231000 262000
2020-07-11 19:30 11.46 81900 343000 (1993) 37500 (2006) 108000 44700 49200 57000 59900 86600 130000 150000 231000 262000
2020-07-11 18:30 11.50 82200 343000 (1993) 37500 (2006) 108000 44700 49200 57000 59900 86600 130000 150000 231000 262000
2020-07-11 17:30 11.48 82000 343000 (1993) 37500 (2006) 108000 44700 49200 57000 59900 86600 130000 150000 231000 262000
2020-07-11 16:30 11.50 82200 343000 (1993) 37500 (2006) 108000 44700 49200 57000 59900 86600 130000 150000 231000 262000
2020-07-11 15:30 11.57 82800 343000 (1993) 37500 (2006) 108000 44700 49200 57000 59900 86600 130000 150000 231000 262000
2020-07-11 14:30 11.58 82900 343000 (1993) 37500 (2006) 108000 44700 49200 57000 59900 86600 130000 150000 231000 262000
2020-07-11 13:30 11.62 83200 343000 (1993) 37500 (2006) 108000 44700 49200 57000 59900 86600 130000 150000 231000 262000
2020-07-11 12:30 11.73 84200 343000 (1993) 37500 (2006) 108000 44700 49200 57000 59900 86600 130000 150000 231000 262000
2020-07-11 11:30 11.78 84600 343000 (1993) 37500 (2006) 108000 44700 49200 57000 59900 86600 130000 150000 231000 262000
2020-07-11 10:30 11.81 84800 343000 (1993) 37500 (2006) 108000 44700 49200 57000 59900 86600 130000 150000 231000 262000
2020-07-11 09:30 11.82 84900 343000 (1993) 37500 (2006) 108000 44700 49200 57000 59900 86600 130000 150000 231000 262000
2020-07-11 08:30 11.83 85000 343000 (1993) 37500 (2006) 108000 44700 49200 57000 59900 86600 130000 150000 231000 262000
2020-07-11 07:30 11.90 85600 343000 (1993) 37500 (2006) 108000 44700 49200 57000 59900 86600 130000 150000 231000 262000
2020-07-11 06:30 11.92 85800 343000 (1993) 37500 (2006) 108000 44700 49200 57000 59900 86600 130000 150000 231000 262000
2020-07-11 05:30 11.95 86100 343000 (1993) 37500 (2006) 108000 44700 49200 57000 59900 86600 130000 150000 231000 262000
2020-07-11 04:30 11.96 86200 343000 (1993) 37500 (2006) 108000 44700 49200 57000 59900 86600 130000 150000 231000 262000
2020-07-11 03:30 11.98 86300 343000 (1993) 37500 (2006) 108000 44700 49200 57000 59900 86600 130000 150000 231000 262000
2020-07-11 02:30 11.99 86400 343000 (1993) 37500 (2006) 108000 44700 49200 57000 59900 86600 130000 150000 231000 262000
2020-07-11 01:30 11.99 86400 343000 (1993) 37500 (2006) 108000 44700 49200 57000 59900 86600 130000 150000 231000 262000
2020-07-11 00:30 11.99 86400 343000 (1993) 37500 (2006) 108000 44700 49200 57000 59900 86600 130000 150000 231000 262000
2020-07-10 23:30 11.98 86300 365000 (1993) 37600 (2006) 112000 46600 49500 59200 66800 91100 131000 154000 245000 257000
2020-07-10 22:30 11.98 86300 365000 (1993) 37600 (2006) 112000 46600 49500 59200 66800 91100 131000 154000 245000 257000
2020-07-10 21:30 11.98 86300 365000 (1993) 37600 (2006) 112000 46600 49500 59200 66800 91100 131000 154000 245000 257000
2020-07-10 20:30 11.99 86400 365000 (1993) 37600 (2006) 112000 46600 49500 59200 66800 91100 131000 154000 245000 257000
2020-07-10 19:30 11.96 86200 365000 (1993) 37600 (2006) 112000 46600 49500 59200 66800 91100 131000 154000 245000 257000
2020-07-10 18:30 11.98 86300 365000 (1993) 37600 (2006) 112000 46600 49500 59200 66800 91100 131000 154000 245000 257000
2020-07-10 17:30 11.95 86100 365000 (1993) 37600 (2006) 112000 46600 49500 59200 66800 91100 131000 154000 245000 257000
2020-07-10 16:30 11.95 86100 365000 (1993) 37600 (2006) 112000 46600 49500 59200 66800 91100 131000 154000 245000 257000
2020-07-10 15:30 12.00 86500 365000 (1993) 37600 (2006) 112000 46600 49500 59200 66800 91100 131000 154000 245000 257000
2020-07-10 14:30 12.01 86600 365000 (1993) 37600 (2006) 112000 46600 49500 59200 66800 91100 131000 154000 245000 257000
2020-07-10 13:30 12.03 86800 365000 (1993) 37600 (2006) 112000 46600 49500 59200 66800 91100 131000 154000 245000 257000
2020-07-10 12:30 12.05 86900 365000 (1993) 37600 (2006) 112000 46600 49500 59200 66800 91100 131000 154000 245000 257000
2020-07-10 11:30 12.06 87000 365000 (1993) 37600 (2006) 112000 46600 49500 59200 66800 91100 131000 154000 245000 257000
2020-07-10 10:30 12.10 87400 365000 (1993) 37600 (2006) 112000 46600 49500 59200 66800 91100 131000 154000 245000 257000
2020-07-10 09:30 12.11 87500 365000 (1993) 37600 (2006) 112000 46600 49500 59200 66800 91100 131000 154000 245000 257000
2020-07-10 08:30 12.14 87700 365000 (1993) 37600 (2006) 112000 46600 49500 59200 66800 91100 131000 154000 245000 257000
2020-07-10 07:30 12.16 87900 365000 (1993) 37600 (2006) 112000 46600 49500 59200 66800 91100 131000 154000 245000 257000
2020-07-10 06:30 12.18 88100 365000 (1993) 37600 (2006) 112000 46600 49500 59200 66800 91100 131000 154000 245000 257000
2020-07-10 05:30 12.19 88200 365000 (1993) 37600 (2006) 112000 46600 49500 59200 66800 91100 131000 154000 245000 257000
2020-07-10 04:30 12.19 88200 365000 (1993) 37600 (2006) 112000 46600 49500 59200 66800 91100 131000 154000 245000 257000
2020-07-10 03:30 12.18 88100 365000 (1993) 37600 (2006) 112000 46600 49500 59200 66800 91100 131000 154000 245000 257000
2020-07-10 02:30 12.18 88100 365000 (1993) 37600 (2006) 112000 46600 49500 59200 66800 91100 131000 154000 245000 257000
2020-07-10 01:30 12.18 88100 365000 (1993) 37600 (2006) 112000 46600 49500 59200 66800 91100 131000 154000 245000 257000
2020-07-10 00:30 12.16 87900 365000 (1993) 37600 (2006) 112000 46600 49500 59200 66800 91100 131000 154000 245000 257000
2020-07-09 23:30 12.12 87600 408000 (1993) 38700 (2006) 115000 44800 48900 55400 67000 95500 139000 145000 253000 261000
2020-07-09 22:30 12.14 87700 408000 (1993) 38700 (2006) 115000 44800 48900 55400 67000 95500 139000 145000 253000 261000
2020-07-09 21:30 12.12 87600 408000 (1993) 38700 (2006) 115000 44800 48900 55400 67000 95500 139000 145000 253000 261000
2020-07-09 20:30 12.09 87300 408000 (1993) 38700 (2006) 115000 44800 48900 55400 67000 95500 139000 145000 253000 261000
2020-07-09 19:30 12.12 87600 408000 (1993) 38700 (2006) 115000 44800 48900 55400 67000 95500 139000 145000 253000 261000
2020-07-09 18:30 12.12 87600 408000 (1993) 38700 (2006) 115000 44800 48900 55400 67000 95500 139000 145000 253000 261000
2020-07-09 17:30 12.13 87600 408000 (1993) 38700 (2006) 115000 44800 48900 55400 67000 95500 139000 145000 253000 261000
2020-07-09 16:30 12.14 87700 408000 (1993) 38700 (2006) 115000 44800 48900 55400 67000 95500 139000 145000 253000 261000
2020-07-09 15:30 12.10 87400 408000 (1993) 38700 (2006) 115000 44800 48900 55400 67000 95500 139000 145000 253000 261000
2020-07-09 14:30 12.10 87400 408000 (1993) 38700 (2006) 115000 44800 48900 55400 67000 95500 139000 145000 253000 261000
2020-07-09 13:30 12.17 88000 408000 (1993) 38700 (2006) 115000 44800 48900 55400 67000 95500 139000 145000 253000 261000
2020-07-09 12:30 12.19 88200 408000 (1993) 38700 (2006) 115000 44800 48900 55400 67000 95500 139000 145000 253000 261000
2020-07-09 11:30 12.19 88200 408000 (1993) 38700 (2006) 115000 44800 48900 55400 67000 95500 139000 145000 253000 261000
2020-07-09 10:30 12.35 89600 408000 (1993) 38700 (2006) 115000 44800 48900 55400 67000 95500 139000 145000 253000 261000
2020-07-09 09:30 12.36 89700 408000 (1993) 38700 (2006) 115000 44800 48900 55400 67000 95500 139000 145000 253000 261000
2020-07-09 08:30 12.42 90200 408000 (1993) 38700 (2006) 115000 44800 48900 55400 67000 95500 139000 145000 253000 261000
2020-07-09 07:30 12.48 90800 408000 (1993) 38700 (2006) 115000 44800 48900 55400 67000 95500 139000 145000 253000 261000
2020-07-09 06:30 12.54 91300 408000 (1993) 38700 (2006) 115000 44800 48900 55400 67000 95500 139000 145000 253000 261000
2020-07-09 05:30 12.54 91300 408000 (1993) 38700 (2006) 115000 44800 48900 55400 67000 95500 139000 145000 253000 261000
2020-07-09 04:30 12.64 92200 408000 (1993) 38700 (2006) 115000 44800 48900 55400 67000 95500 139000 145000 253000 261000
2020-07-09 03:30 12.64 92200 408000 (1993) 38700 (2006) 115000 44800 48900 55400 67000 95500 139000 145000 253000 261000
2020-07-09 02:30 12.72 93000 408000 (1993) 38700 (2006) 115000 44800 48900 55400 67000 95500 139000 145000 253000 261000
2020-07-09 01:30 12.78 93500 408000 (1993) 38700 (2006) 115000 44800 48900 55400 67000 95500 139000 145000 253000 261000
2020-07-09 00:30 12.78 93500 408000 (1993) 38700 (2006) 115000 44800 48900 55400 67000 95500 139000 145000 253000 261000
2020-07-08 23:30 12.86 94300 418000 (1993) 39900 (2006) 114000 45600 49000 54500 65800 102000 134000 150000 229000 262000
2020-07-08 22:30 12.91 94700 418000 (1993) 39900 (2006) 114000 45600 49000 54500 65800 102000 134000 150000 229000 262000
2020-07-08 21:30 12.89 94500 418000 (1993) 39900 (2006) 114000 45600 49000 54500 65800 102000 134000 150000 229000 262000
2020-07-08 20:30 12.97 95300 418000 (1993) 39900 (2006) 114000 45600 49000 54500 65800 102000 134000 150000 229000 262000
2020-07-08 19:30 12.91 94700 418000 (1993) 39900 (2006) 114000 45600 49000 54500 65800 102000 134000 150000 229000 262000
2020-07-08 18:30 13.04 95900 418000 (1993) 39900 (2006) 114000 45600 49000 54500 65800 102000 134000 150000 229000 262000
2020-07-08 17:30 13.07 96200 418000 (1993) 39900 (2006) 114000 45600 49000 54500 65800 102000 134000 150000 229000 262000
2020-07-08 16:30 13.06 96100 418000 (1993) 39900 (2006) 114000 45600 49000 54500 65800 102000 134000 150000 229000 262000
2020-07-08 15:30 13.09 96400 418000 (1993) 39900 (2006) 114000 45600 49000 54500 65800 102000 134000 150000 229000 262000
2020-07-08 14:30 13.14 96900 418000 (1993) 39900 (2006) 114000 45600 49000 54500 65800 102000 134000 150000 229000 262000
2020-07-08 13:30 13.17 97200 418000 (1993) 39900 (2006) 114000 45600 49000 54500 65800 102000 134000 150000 229000 262000
2020-07-08 12:30 13.20 97500 418000 (1993) 39900 (2006) 114000 45600 49000 54500 65800 102000 134000 150000 229000 262000
2020-07-08 11:30 13.24 97800 418000 (1993) 39900 (2006) 114000 45600 49000 54500 65800 102000 134000 150000 229000 262000
2020-07-08 10:30 13.28 98200 418000 (1993) 39900 (2006) 114000 45600 49000 54500 65800 102000 134000 150000 229000 262000
2020-07-08 09:30 13.33 98700 418000 (1993) 39900 (2006) 114000 45600 49000 54500 65800 102000 134000 150000 229000 262000
2020-07-08 08:30 13.38 99200 418000 (1993) 39900 (2006) 114000 45600 49000 54500 65800 102000 134000 150000 229000 262000
2020-07-08 07:30 13.43 99700 418000 (1993) 39900 (2006) 114000 45600 49000 54500 65800 102000 134000 150000 229000 262000
2020-07-08 06:30 13.50 100000 418000 (1993) 39900 (2006) 114000 45600 49000 54500 65800 102000 134000 150000 229000 262000
2020-07-08 05:30 13.56 101000 418000 (1993) 39900 (2006) 114000 45600 49000 54500 65800 102000 134000 150000 229000 262000
2020-07-08 04:30 13.63 102000 418000 (1993) 39900 (2006) 114000 45600 49000 54500 65800 102000 134000 150000 229000 262000
2020-07-08 03:30 13.67 102000 418000 (1993) 39900 (2006) 114000 45600 49000 54500 65800 102000 134000 150000 229000 262000
2020-07-08 02:30 13.72 102000 418000 (1993) 39900 (2006) 114000 45600 49000 54500 65800 102000 134000 150000 229000 262000
2020-07-08 01:30 13.75 103000 418000 (1993) 39900 (2006) 114000 45600 49000 54500 65800 102000 134000 150000 229000 262000
2020-07-08 00:30 13.78 103000 418000 (1993) 39900 (2006) 114000 45600 49000 54500 65800 102000 134000 150000 229000 262000
2020-07-07 23:30 13.78 103000 402000 (1993) 41400 (2006) 116000 45700 47900 54700 67100 101000 141000 158000 215000 273000
2020-07-07 22:30 13.79 103000 402000 (1993) 41400 (2006) 116000 45700 47900 54700 67100 101000 141000 158000 215000 273000
2020-07-07 21:30 13.75 103000 402000 (1993) 41400 (2006) 116000 45700 47900 54700 67100 101000 141000 158000 215000 273000
2020-07-07 20:30 13.74 103000 402000 (1993) 41400 (2006) 116000 45700 47900 54700 67100 101000 141000 158000 215000 273000
2020-07-07 19:30 13.71 102000 402000 (1993) 41400 (2006) 116000 45700 47900 54700 67100 101000 141000 158000 215000 273000
2020-07-07 18:30 13.65 102000 402000 (1993) 41400 (2006) 116000 45700 47900 54700 67100 101000 141000 158000 215000 273000
2020-07-07 17:30 13.59 101000 402000 (1993) 41400 (2006) 116000 45700 47900 54700 67100 101000 141000 158000 215000 273000
2020-07-07 16:30 13.50 100000 402000 (1993) 41400 (2006) 116000 45700 47900 54700 67100 101000 141000 158000 215000 273000
2020-07-07 15:30 13.42 99600 402000 (1993) 41400 (2006) 116000 45700 47900 54700 67100 101000 141000 158000 215000 273000
2020-07-07 14:30 13.37 99100 402000 (1993) 41400 (2006) 116000 45700 47900 54700 67100 101000 141000 158000 215000 273000
2020-07-07 13:30 13.30 98400 402000 (1993) 41400 (2006) 116000 45700 47900 54700 67100 101000 141000 158000 215000 273000
2020-07-07 12:30 13.26 98000 402000 (1993) 41400 (2006) 116000 45700 47900 54700 67100 101000 141000 158000 215000 273000
2020-07-07 11:30 13.20 97500 402000 (1993) 41400 (2006) 116000 45700 47900 54700 67100 101000 141000 158000 215000 273000
2020-07-07 10:30 13.17 97200 402000 (1993) 41400 (2006) 116000 45700 47900 54700 67100 101000 141000 158000 215000 273000
2020-07-07 09:30 13.19 97400 402000 (1993) 41400 (2006) 116000 45700 47900 54700 67100 101000 141000 158000 215000 273000
2020-07-07 08:30 13.21 97600 402000 (1993) 41400 (2006) 116000 45700 47900 54700 67100 101000 141000 158000 215000 273000
2020-07-07 07:30 13.23 97700 402000 (1993) 41400 (2006) 116000 45700 47900 54700 67100 101000 141000 158000 215000 273000
2020-07-07 06:30 13.27 98100 402000 (1993) 41400 (2006) 116000 45700 47900 54700 67100 101000 141000 158000 215000 273000
2020-07-07 05:30 13.30 98400 402000 (1993) 41400 (2006) 116000 45700 47900 54700 67100 101000 141000 158000 215000 273000
2020-07-07 04:30 13.33 98700 402000 (1993) 41400 (2006) 116000 45700 47900 54700 67100 101000 141000 158000 215000 273000
2020-07-07 03:30 13.39 99300 402000 (1993) 41400 (2006) 116000 45700 47900 54700 67100 101000 141000 158000 215000 273000
2020-07-07 02:30 13.41 99500 402000 (1993) 41400 (2006) 116000 45700 47900 54700 67100 101000 141000 158000 215000 273000
2020-07-07 01:30 13.45 99800 402000 (1993) 41400 (2006) 116000 45700 47900 54700 67100 101000 141000 158000 215000 273000
2020-07-07 00:30 13.49 100000 402000 (1993) 41400 (2006) 116000 45700 47900 54700 67100 101000 141000 158000 215000 273000
2020-07-06 23:30 13.52 101000 309000 (1969) 44700 (2006) 116000 46900 48400 55200 62700 99700 152000 174000 209000 278000
2020-07-06 22:30 13.56 101000 309000 (1969) 44700 (2006) 116000 46900 48400 55200 62700 99700 152000 174000 209000 278000
2020-07-06 21:30 13.58 101000 309000 (1969) 44700 (2006) 116000 46900 48400 55200 62700 99700 152000 174000 209000 278000
2020-07-06 20:30 13.58 101000 309000 (1969) 44700 (2006) 116000 46900 48400 55200 62700 99700 152000 174000 209000 278000
2020-07-06 19:30 13.66 102000 309000 (1969) 44700 (2006) 116000 46900 48400 55200 62700 99700 152000 174000 209000 278000
2020-07-06 18:30 13.70 102000 309000 (1969) 44700 (2006) 116000 46900 48400 55200 62700 99700 152000 174000 209000 278000
2020-07-06 17:30 13.74 103000 309000 (1969) 44700 (2006) 116000 46900 48400 55200 62700 99700 152000 174000 209000 278000
2020-07-06 16:30 13.77 103000 309000 (1969) 44700 (2006) 116000 46900 48400 55200 62700 99700 152000 174000 209000 278000
2020-07-06 15:30 13.80 103000 309000 (1969) 44700 (2006) 116000 46900 48400 55200 62700 99700 152000 174000 209000 278000
2020-07-06 14:30 13.83 104000 309000 (1969) 44700 (2006) 116000 46900 48400 55200 62700 99700 152000 174000 209000 278000
2020-07-06 13:30 13.85 104000 309000 (1969) 44700 (2006) 116000 46900 48400 55200 62700 99700 152000 174000 209000 278000
2020-07-06 12:30 13.84 104000 309000 (1969) 44700 (2006) 116000 46900 48400 55200 62700 99700 152000 174000 209000 278000
2020-07-06 11:30 13.92 104000 309000 (1969) 44700 (2006) 116000 46900 48400 55200 62700 99700 152000 174000 209000 278000
2020-07-06 10:30 13.95 105000 309000 (1969) 44700 (2006) 116000 46900 48400 55200 62700 99700 152000 174000 209000 278000
2020-07-06 09:30 13.98 105000 309000 (1969) 44700 (2006) 116000 46900 48400 55200 62700 99700 152000 174000 209000 278000
2020-07-06 08:30 14.01 105000 309000 (1969) 44700 (2006) 116000 46900 48400 55200 62700 99700 152000 174000 209000 278000
2020-07-06 07:30 14.04 106000 309000 (1969) 44700 (2006) 116000 46900 48400 55200 62700 99700 152000 174000 209000 278000
2020-07-06 06:30 14.06 106000 309000 (1969) 44700 (2006) 116000 46900 48400 55200 62700 99700 152000 174000 209000 278000
2020-07-06 05:30 14.12 106000 309000 (1969) 44700 (2006) 116000 46900 48400 55200 62700 99700 152000 174000 209000 278000
2020-07-06 04:30 14.16 107000 309000 (1969) 44700 (2006) 116000 46900 48400 55200 62700 99700 152000 174000 209000 278000
2020-07-06 03:30 14.21 107000 309000 (1969) 44700 (2006) 116000 46900 48400 55200 62700 99700 152000 174000 209000 278000
2020-07-06 02:30 14.24 108000 309000 (1969) 44700 (2006) 116000 46900 48400 55200 62700 99700 152000 174000 209000 278000
2020-07-06 01:30 14.28 108000 309000 (1969) 44700 (2006) 116000 46900 48400 55200 62700 99700 152000 174000 209000 278000
2020-07-06 00:30 14.31 108000 309000 (1969) 44700 (2006) 116000 46900 48400 55200 62700 99700 152000 174000 209000 278000

A total of 184 rows are displayed for years 1958 through 2019.